createdAt,value
2018-09-03T00:02:18.347Z,5.13
2018-09-03T00:04:45.506Z,5.17
2018-09-03T00:07:12.678Z,5.30
2018-09-03T00:09:39.871Z,5.63
2018-09-03T00:12:07.021Z,5.00
2018-09-03T00:14:34.208Z,5.23
2018-09-03T00:17:01.353Z,5.47
2018-09-03T00:19:28.721Z,5.80
2018-09-03T00:21:55.890Z,5.43
2018-09-03T00:24:23.061Z,5.40
2018-09-03T00:26:50.215Z,5.10
2018-09-03T00:29:17.374Z,5.83
2018-09-03T00:31:49.918Z,5.20
2018-09-03T00:34:22.661Z,6.27
2018-09-03T00:36:55.383Z,5.70
2018-09-03T00:39:28.034Z,6.10
2018-09-03T00:42:00.848Z,5.73
2018-09-03T00:44:33.583Z,5.80
2018-09-03T00:47:04.167Z,6.33
2018-09-03T00:49:31.325Z,6.00
2018-09-03T00:51:58.543Z,6.13
2018-09-03T00:54:25.703Z,7.43
2018-09-03T00:56:52.883Z,5.97
2018-09-03T00:59:20.037Z,5.90
2018-09-03T01:01:47.352Z,6.40
2018-09-03T01:04:14.519Z,6.90
2018-09-03T01:06:41.718Z,7.10
2018-09-03T01:09:09.400Z,6.60
2018-09-03T01:11:36.583Z,6.83
2018-09-03T01:14:03.742Z,6.60
2018-09-03T01:16:30.912Z,6.70
2018-09-03T01:18:58.058Z,6.20
2018-09-03T01:21:25.783Z,6.30
2018-09-03T01:23:53.328Z,6.40
2018-09-03T01:26:20.495Z,6.20
2018-09-03T01:28:47.654Z,6.77
2018-09-03T01:31:18.089Z,6.47
2018-09-03T01:33:45.487Z,8.07
2018-09-03T01:36:12.656Z,7.40
2018-09-03T01:38:39.815Z,8.00
2018-09-03T01:41:06.983Z,7.37
2018-09-03T01:43:34.130Z,8.30
2018-09-03T01:46:01.307Z,8.13
2018-09-03T01:48:28.468Z,8.77
2018-09-03T01:50:55.638Z,8.47
2018-09-03T01:53:22.794Z,7.70
2018-09-03T01:55:49.979Z,7.80
2018-09-03T01:58:17.132Z,8.23
2018-09-03T02:00:44.307Z,8.17
2018-09-03T02:03:11.464Z,8.93
2018-09-03T02:05:38.640Z,7.57
2018-09-03T02:08:05.807Z,7.90
2018-09-03T02:10:32.954Z,7.70
2018-09-03T02:13:00.122Z,7.53
2018-09-03T02:15:27.270Z,7.50
2018-09-03T02:17:54.454Z,7.37
2018-09-03T02:20:21.611Z,8.70
2018-09-03T02:22:48.778Z,8.17
2018-09-03T02:25:15.933Z,7.40
2018-09-03T02:27:43.112Z,7.40
2018-09-03T02:30:10.257Z,8.73
2018-09-03T02:32:37.450Z,7.63
2018-09-03T02:35:04.619Z,6.93
2018-09-03T02:37:31.791Z,7.00
2018-09-03T02:39:58.942Z,8.80
2018-09-03T02:42:26.114Z,8.20
2018-09-03T02:44:53.275Z,7.17
2018-09-03T02:47:20.434Z,8.47
2018-09-03T02:49:47.586Z,8.13
2018-09-03T02:52:14.762Z,8.90
2018-09-03T02:54:41.940Z,8.27
2018-09-03T02:57:09.119Z,9.47
2018-09-03T02:59:36.296Z,8.40
2018-09-03T03:02:03.633Z,8.73
2018-09-03T03:04:30.775Z,9.20
2018-09-03T03:06:57.994Z,9.13
2018-09-03T03:09:25.161Z,9.90
2018-09-03T03:11:52.411Z,9.60
2018-09-03T03:14:19.520Z,9.50
2018-09-03T03:16:46.717Z,10.17
2018-09-03T03:19:13.881Z,10.60
2018-09-03T03:21:41.062Z,10.20
2018-09-03T03:24:08.227Z,9.87
2018-09-03T03:26:35.396Z,9.73
2018-09-03T03:29:02.559Z,10.40
2018-09-03T03:31:29.738Z,9.60
2018-09-03T03:33:56.903Z,11.00
2018-09-03T03:36:24.059Z,9.43
2018-09-03T03:38:51.267Z,11.90
2018-09-03T03:41:18.443Z,11.70
2018-09-03T03:43:45.626Z,11.53
2018-09-03T03:46:12.890Z,10.50
2018-09-03T03:48:40.141Z,10.33
2018-09-03T03:51:07.295Z,11.33
2018-09-03T03:53:34.482Z,12.30
2018-09-03T03:56:01.637Z,11.73
2018-09-03T03:58:28.827Z,10.77
2018-09-03T04:00:55.995Z,10.60
2018-09-03T04:03:23.180Z,10.70
2018-09-03T04:05:50.357Z,10.23
2018-09-03T04:08:17.547Z,10.47
2018-09-03T04:10:44.706Z,11.63
2018-09-03T04:13:11.878Z,11.20
2018-09-03T04:15:39.038Z,10.00
2018-09-03T04:18:06.201Z,9.10
2018-09-03T04:20:33.376Z,8.63
2018-09-03T04:23:00.596Z,11.70
2018-09-03T04:25:27.830Z,10.97
2018-09-03T04:27:55.642Z,11.37
2018-09-03T04:30:22.842Z,10.57
2018-09-03T04:32:50.037Z,10.67
2018-09-03T04:35:17.347Z,11.40
2018-09-03T04:37:44.520Z,11.87
2018-09-03T04:40:11.976Z,11.83
2018-09-03T04:42:39.154Z,11.20
2018-09-03T04:45:06.308Z,11.67
2018-09-03T04:47:33.496Z,11.37
2018-09-03T04:50:00.666Z,11.00
2018-09-03T04:52:28.378Z,11.03
2018-09-03T04:54:55.999Z,11.23
2018-09-03T04:57:23.163Z,12.00
2018-09-03T04:59:50.326Z,12.73
2018-09-03T05:04:51.615Z,12.80
2018-09-03T05:07:18.808Z,12.10
2018-09-03T05:09:45.978Z,12.40
2018-09-03T05:12:13.167Z,10.87
2018-09-03T05:14:40.353Z,11.23
2018-09-03T05:17:07.530Z,12.77
2018-09-03T05:19:34.735Z,13.43
2018-09-03T05:22:01.909Z,9.60
2018-09-03T05:24:29.082Z,10.97
2018-09-03T05:26:56.285Z,11.87
2018-09-03T05:29:23.830Z,12.00
2018-09-03T05:31:50.994Z,13.17
2018-09-03T05:34:18.205Z,13.63
2018-09-03T05:36:45.404Z,13.00
2018-09-03T05:39:13.326Z,14.83
2018-09-03T05:41:40.772Z,12.83
2018-09-03T05:44:08.452Z,13.27
2018-09-03T05:46:36.010Z,14.10
2018-09-03T05:49:03.247Z,15.33
2018-09-03T05:51:30.406Z,14.53
2018-09-03T05:53:57.571Z,13.87
2018-09-03T05:56:24.760Z,13.17
2018-09-03T05:58:51.952Z,13.20
2018-09-03T06:01:19.411Z,13.20
2018-09-03T06:03:46.598Z,12.33
2018-09-03T06:06:13.809Z,12.93
2018-09-03T06:08:40.989Z,12.00
2018-09-03T06:11:08.247Z,13.20
2018-09-03T06:13:35.486Z,13.17
2018-09-03T06:16:02.699Z,11.97
2018-09-03T06:18:29.870Z,12.93
2018-09-03T06:20:57.075Z,13.63
2018-09-03T06:23:24.242Z,12.83
2018-09-03T06:25:51.431Z,11.30
2018-09-03T06:28:18.618Z,13.87
2018-09-03T06:30:45.803Z,13.23
2018-09-03T06:33:13.013Z,13.67
2018-09-03T06:35:40.209Z,13.13
2018-09-03T06:38:07.383Z,14.17
2018-09-03T06:40:34.558Z,13.63
2018-09-03T06:43:01.726Z,12.53
2018-09-03T06:45:28.915Z,14.60
2018-09-03T06:47:56.116Z,13.00
2018-09-03T06:50:23.323Z,12.70
2018-09-03T06:52:50.563Z,12.90
2018-09-03T06:55:17.683Z,13.03
2018-09-03T06:57:44.851Z,13.03
2018-09-03T07:00:12.047Z,13.10
2018-09-03T07:02:41.065Z,13.07
2018-09-03T07:05:08.252Z,12.90
2018-09-03T07:07:35.418Z,12.90
2018-09-03T07:10:02.599Z,12.87
2018-09-03T07:12:29.762Z,12.93
2018-09-03T07:14:56.947Z,12.90
2018-09-03T07:17:24.103Z,12.60
2018-09-03T07:19:51.316Z,13.70
2018-09-03T07:22:18.505Z,14.10
2018-09-03T07:24:45.686Z,13.90
2018-09-03T07:27:12.859Z,13.73
2018-09-03T07:29:40.078Z,13.20
2018-09-03T07:32:07.285Z,13.70
2018-09-03T07:34:34.466Z,14.13
2018-09-03T07:37:01.654Z,14.10
2018-09-03T07:39:28.824Z,13.80
2018-09-03T07:41:56.012Z,13.00
2018-09-03T07:44:23.197Z,13.00
2018-09-03T07:46:50.390Z,14.30
2018-09-03T07:49:17.538Z,14.00
2018-09-03T07:51:44.739Z,15.23
2018-09-03T07:54:11.914Z,13.63
2018-09-03T07:56:39.088Z,14.00
2018-09-03T07:59:06.280Z,14.23
2018-09-03T08:01:33.451Z,14.13
2018-09-03T08:04:00.653Z,14.30
2018-09-03T08:06:27.855Z,13.30
2018-09-03T08:08:55.042Z,14.57
2018-09-03T08:11:22.226Z,14.83
2018-09-03T08:13:49.414Z,14.80
2018-09-03T08:16:16.833Z,15.60
2018-09-03T08:18:43.848Z,14.80
2018-09-03T08:21:11.035Z,15.97
2018-09-03T08:23:38.206Z,14.70
2018-09-03T08:26:05.635Z,15.33
2018-09-03T08:28:32.817Z,15.37
2018-09-03T08:31:00.207Z,16.77
2018-09-03T08:33:27.374Z,16.30
2018-09-03T08:35:54.603Z,16.43
2018-09-03T08:38:21.794Z,15.67
2018-09-03T08:40:48.997Z,15.50
2018-09-03T08:43:16.184Z,15.70
2018-09-03T08:45:43.408Z,14.90
2018-09-03T08:48:10.593Z,15.97
2018-09-03T08:50:37.814Z,15.97
2018-09-03T08:53:05.035Z,15.00
2018-09-03T08:55:32.215Z,15.73
2018-09-03T08:57:59.408Z,15.90
2018-09-03T09:00:26.578Z,15.83
2018-09-03T09:02:53.815Z,15.17
2018-09-03T09:05:20.979Z,15.20
2018-09-03T09:07:48.179Z,16.77
2018-09-03T09:10:15.347Z,17.77
2018-09-03T09:12:42.513Z,17.77
2018-09-03T09:15:09.694Z,16.10
2018-09-03T09:17:36.888Z,17.80
2018-09-03T09:20:04.079Z,16.90
2018-09-03T09:22:31.273Z,18.50
2018-09-03T09:24:58.449Z,15.40
2018-09-03T09:27:25.643Z,14.03
2018-09-03T09:29:52.816Z,15.10
2018-09-03T09:32:20.028Z,14.83
2018-09-03T09:34:47.444Z,18.40
2018-09-03T09:37:14.635Z,16.57
2018-09-03T09:39:41.922Z,15.33
2018-09-03T09:42:09.088Z,14.73
2018-09-03T09:44:36.252Z,15.70
2018-09-03T09:47:03.449Z,16.30
2018-09-03T09:49:30.648Z,15.03
2018-09-03T09:51:57.802Z,15.73
2018-09-03T09:54:25.015Z,16.13
2018-09-03T09:56:52.195Z,14.10
2018-09-03T09:59:19.480Z,14.03
2018-09-03T10:01:46.658Z,15.77
2018-09-03T10:04:13.901Z,16.73
2018-09-03T10:06:41.052Z,15.07
2018-09-03T10:09:08.406Z,16.30
2018-09-03T10:11:35.611Z,17.20
2018-09-03T10:14:02.803Z,17.00
2018-09-03T10:16:30.008Z,14.83
2018-09-03T10:18:57.167Z,16.20
2018-09-03T10:21:24.325Z,16.43
2018-09-03T10:23:51.542Z,16.93
2018-09-03T10:26:18.871Z,17.83
2018-09-03T10:28:46.017Z,16.20
2018-09-03T10:31:13.214Z,17.20
2018-09-03T10:33:40.410Z,15.63
2018-09-03T10:36:07.579Z,15.17
2018-09-03T10:38:34.760Z,17.10
2018-09-03T10:41:01.919Z,16.73
2018-09-03T10:43:29.114Z,17.50
2018-09-03T10:45:56.269Z,15.83
2018-09-03T10:48:23.470Z,17.47
2018-09-03T10:50:50.654Z,17.90
2018-09-03T10:53:17.817Z,16.03
2018-09-03T10:55:45.012Z,15.80
2018-09-03T10:58:12.561Z,15.23
2018-09-03T11:00:39.771Z,18.20
2018-09-03T11:03:07.082Z,18.30
2018-09-03T11:05:34.296Z,17.83
2018-09-03T11:08:01.682Z,16.07
2018-09-03T11:10:29.037Z,18.53
2018-09-03T11:12:56.245Z,16.77
2018-09-03T11:15:23.435Z,16.93
2018-09-03T11:17:50.655Z,16.33
2018-09-03T11:20:21.882Z,16.87
2018-09-03T11:22:49.086Z,16.37
2018-09-03T11:25:17.623Z,16.57
2018-09-03T11:27:44.836Z,18.03
2018-09-03T11:30:12.002Z,18.30
2018-09-03T11:32:39.201Z,15.33
2018-09-03T11:35:06.420Z,18.00
2018-09-03T11:37:33.643Z,19.30
2018-09-03T11:40:00.856Z,18.83
2018-09-03T11:42:28.038Z,17.80
2018-09-03T11:45:01.808Z,18.00
2018-09-03T11:47:28.970Z,18.03
2018-09-03T11:49:56.139Z,16.90
2018-09-03T11:52:23.338Z,19.00
2018-09-03T11:54:50.511Z,19.23
2018-09-03T11:57:17.869Z,20.23
2018-09-03T11:59:45.154Z,18.30
2018-09-03T12:02:12.364Z,19.07
2018-09-03T12:04:39.554Z,19.00
2018-09-03T12:07:06.758Z,19.90
2018-09-03T12:09:33.930Z,19.73
2018-09-03T12:12:01.124Z,21.40
2018-09-03T12:14:31.399Z,20.83
2018-09-03T12:16:58.943Z,19.17
2018-09-03T12:19:26.128Z,21.10
2018-09-03T12:21:53.299Z,20.23
2018-09-03T12:24:20.486Z,20.87
2018-09-03T12:26:47.650Z,19.60
2018-09-03T12:29:14.863Z,20.87
2018-09-03T12:31:42.044Z,21.13
2018-09-03T12:34:09.244Z,21.30
2018-09-03T12:36:36.439Z,20.37
2018-09-03T12:39:03.984Z,19.83
2018-09-03T12:41:31.202Z,21.63
2018-09-03T12:43:58.469Z,21.17
2018-09-03T12:46:25.712Z,20.27
2018-09-03T12:48:52.845Z,21.70
2018-09-03T12:51:20.158Z,21.50
2018-09-03T12:53:47.271Z,20.87
2018-09-03T12:56:14.478Z,20.93
2018-09-03T12:58:41.713Z,19.90
2018-09-03T13:01:08.940Z,21.20
2018-09-03T13:03:36.139Z,20.00
2018-09-03T13:06:03.634Z,21.17
2018-09-03T13:08:30.866Z,19.23
2018-09-03T13:10:58.047Z,20.97
2018-09-03T13:13:25.232Z,22.07
2018-09-03T13:15:52.442Z,21.47
2018-09-03T13:18:19.614Z,21.10
2018-09-03T13:20:46.809Z,20.67
2018-09-03T13:23:13.991Z,20.60
2018-09-03T13:25:41.174Z,21.23
2018-09-03T13:28:08.358Z,20.80
2018-09-03T13:30:35.536Z,22.20
2018-09-03T13:33:02.725Z,21.67
2018-09-03T13:35:29.892Z,21.90
2018-09-03T13:37:57.087Z,22.07
2018-09-03T13:40:24.305Z,21.70
2018-09-03T13:42:51.494Z,20.80
2018-09-03T13:45:18.703Z,20.17
2018-09-03T13:47:45.980Z,20.13
2018-09-03T13:50:13.151Z,21.23
2018-09-03T13:52:40.351Z,20.40
2018-09-03T13:55:07.568Z,20.93
2018-09-03T13:57:34.741Z,20.20
2018-09-03T14:00:01.927Z,21.40
2018-09-03T14:02:29.136Z,19.00
2018-09-03T14:04:56.316Z,19.80
2018-09-03T14:07:23.506Z,20.17
2018-09-03T14:10:01.148Z,20.67
2018-09-03T14:12:28.788Z,19.27
2018-09-03T14:14:55.961Z,19.57
2018-09-03T14:17:23.221Z,20.00
2018-09-03T14:19:50.405Z,19.70
2018-09-03T14:22:17.596Z,19.63
2018-09-03T14:24:44.780Z,19.30
2018-09-03T14:27:11.982Z,18.00
2018-09-03T14:29:39.165Z,17.73
2018-09-03T14:32:06.331Z,19.70
2018-09-03T14:34:33.536Z,17.37
2018-09-03T14:37:00.805Z,19.23
2018-09-03T14:39:27.925Z,17.97
2018-09-03T14:41:55.098Z,18.40
2018-09-03T14:44:22.301Z,16.30
2018-09-03T14:46:49.504Z,17.33
2018-09-03T14:49:16.695Z,17.73
2018-09-03T14:51:43.891Z,16.73
2018-09-03T14:54:11.097Z,18.27
2018-09-03T14:56:38.342Z,16.57
2018-09-03T14:59:05.507Z,16.60
2018-09-03T15:01:32.680Z,17.90
2018-09-03T15:03:59.922Z,17.30
2018-09-03T15:06:27.072Z,17.63
2018-09-03T15:08:54.258Z,17.53
2018-09-03T15:11:21.483Z,17.43
2018-09-03T15:13:53.243Z,17.10
2018-09-03T15:16:20.455Z,16.90
2018-09-03T15:18:47.626Z,18.67
2018-09-03T15:21:14.821Z,17.87
2018-09-03T15:23:42.014Z,18.30
2018-09-03T15:26:09.257Z,17.63
2018-09-03T15:28:36.401Z,17.30
2018-09-03T15:31:03.616Z,17.43
2018-09-03T15:33:30.800Z,18.60
2018-09-03T15:38:31.776Z,17.77
2018-09-03T15:40:58.951Z,17.80
2018-09-03T15:43:26.193Z,17.93
2018-09-03T15:45:53.367Z,17.70
2018-09-03T15:48:20.607Z,17.70
2018-09-03T15:50:47.910Z,17.73
2018-09-03T15:53:15.115Z,16.73
2018-09-03T15:55:42.334Z,18.30
2018-09-03T15:58:09.531Z,18.27
2018-09-03T16:00:36.710Z,18.00
2018-09-03T16:03:04.062Z,18.43
2018-09-03T16:05:31.256Z,17.60
2018-09-03T16:07:58.447Z,18.23
2018-09-03T16:10:25.648Z,18.93
2018-09-03T16:12:52.839Z,17.10
2018-09-03T16:15:20.032Z,17.27
2018-09-03T16:17:47.220Z,17.03
2018-09-03T16:20:14.403Z,18.27
2018-09-03T16:22:41.590Z,19.53
2018-09-03T16:25:08.777Z,18.30
2018-09-03T16:27:35.994Z,17.23
2018-09-03T16:30:03.195Z,16.27
2018-09-03T16:32:30.363Z,17.70
2018-09-03T16:34:57.560Z,17.30
2018-09-03T16:37:24.724Z,17.90
2018-09-03T16:39:51.915Z,19.10
2018-09-03T16:42:19.098Z,18.03
2018-09-03T16:44:46.288Z,19.97
2018-09-03T16:47:13.455Z,19.27
2018-09-03T16:49:40.671Z,17.93
2018-09-03T16:52:07.864Z,17.00
2018-09-03T16:54:35.068Z,18.60
2018-09-03T16:57:02.275Z,18.70
2018-09-03T16:59:29.481Z,20.13
2018-09-03T17:01:56.643Z,18.67
2018-09-03T17:04:23.832Z,17.80
2018-09-03T17:06:51.014Z,19.47
2018-09-03T17:09:18.215Z,19.40
2018-09-03T17:11:45.412Z,20.33
2018-09-03T17:14:12.594Z,18.57
2018-09-03T17:16:39.763Z,20.27
2018-09-03T17:19:06.940Z,20.30
2018-09-03T17:21:34.155Z,19.57
2018-09-03T17:24:01.327Z,17.90
2018-09-03T17:26:28.532Z,20.20
2018-09-03T17:28:55.797Z,20.47
2018-09-03T17:31:22.928Z,20.40
2018-09-03T17:33:50.129Z,19.87
2018-09-03T17:36:17.299Z,18.33
2018-09-03T17:38:44.510Z,19.10
2018-09-03T17:41:11.705Z,20.03
2018-09-03T17:43:38.881Z,20.07
2018-09-03T17:46:06.072Z,18.33
2018-09-03T17:48:33.306Z,18.13
2018-09-03T17:51:00.507Z,17.03
2018-09-03T17:53:27.695Z,17.17
2018-09-03T17:55:54.930Z,16.50
2018-09-03T17:58:22.107Z,16.80
2018-09-03T18:00:49.300Z,15.90
2018-09-03T18:03:16.502Z,17.50
2018-09-03T18:05:43.720Z,16.50
2018-09-03T18:08:10.926Z,17.73
2018-09-03T18:10:38.101Z,14.93
2018-09-03T18:13:05.678Z,14.47
2018-09-03T18:15:32.871Z,15.70
2018-09-03T18:18:00.047Z,14.80
2018-09-03T18:20:27.231Z,16.27
2018-09-03T18:22:54.455Z,16.63
2018-09-03T18:25:21.665Z,16.30
2018-09-03T18:27:48.832Z,15.93
2018-09-03T18:30:16.117Z,15.43
2018-09-03T18:32:43.237Z,14.53
2018-09-03T18:35:10.495Z,16.30
2018-09-03T18:37:37.667Z,16.20
2018-09-03T18:40:04.902Z,15.53
2018-09-03T18:42:32.069Z,15.90
2018-09-03T18:44:59.526Z,14.63
2018-09-03T18:47:27.006Z,15.17
2018-09-03T18:49:54.170Z,15.50
2018-09-03T18:52:21.386Z,15.60
2018-09-03T18:54:48.551Z,14.60
2018-09-03T18:57:15.746Z,16.20
2018-09-03T18:59:42.952Z,14.90
2018-09-03T19:02:10.125Z,15.23
2018-09-03T19:04:37.311Z,15.13
2018-09-03T19:07:04.506Z,15.37
2018-09-03T19:09:31.696Z,15.80
2018-09-03T19:11:58.859Z,14.97
2018-09-03T19:14:26.071Z,15.23
2018-09-03T19:16:53.595Z,14.77
2018-09-03T19:19:20.796Z,18.23
2018-09-03T19:21:48.030Z,17.03
2018-09-03T19:24:15.214Z,15.23
2018-09-03T19:26:42.470Z,14.50
2018-09-03T19:29:09.854Z,13.83
2018-09-03T19:31:37.041Z,15.23
2018-09-03T19:34:04.194Z,16.13
2018-09-03T19:36:31.434Z,18.27
2018-09-03T19:38:58.560Z,17.53
2018-09-03T19:41:25.745Z,16.47
2018-09-03T19:43:52.914Z,16.47
2018-09-03T19:48:53.924Z,18.07
2018-09-03T19:51:21.483Z,17.63
2018-09-03T19:53:48.660Z,18.33
2018-09-03T19:56:15.844Z,16.37
2018-09-03T19:58:43.051Z,15.87
2018-09-03T20:01:10.228Z,17.43
2018-09-03T20:06:16.603Z,14.03
2018-09-03T20:08:43.768Z,16.67
2018-09-03T20:11:10.956Z,16.67
2018-09-03T20:13:38.143Z,17.23
2018-09-03T20:16:05.336Z,19.70
2018-09-03T20:18:32.496Z,17.40
2018-09-03T20:20:59.710Z,18.33
2018-09-03T20:23:26.960Z,20.57
2018-09-03T20:25:54.196Z,17.80
2018-09-03T20:28:21.359Z,16.20
2018-09-03T20:30:48.540Z,16.60
2018-09-03T20:33:15.707Z,16.50
2018-09-03T20:35:42.903Z,18.03
2018-09-03T20:38:10.194Z,17.93
2018-09-03T20:40:37.382Z,17.00
2018-09-03T20:43:04.607Z,18.80
2018-09-03T20:45:31.777Z,19.63
2018-09-03T20:47:58.956Z,18.57
2018-09-03T20:50:26.148Z,18.50
2018-09-03T20:52:53.305Z,18.40
2018-09-03T20:55:20.501Z,20.03
2018-09-03T20:57:47.699Z,18.10
2018-09-03T21:00:14.899Z,17.67
2018-09-03T21:02:42.087Z,19.80
2018-09-03T21:05:09.283Z,19.83
2018-09-03T21:07:36.551Z,19.47
2018-09-03T21:10:03.819Z,18.77
2018-09-03T21:12:31.006Z,18.97
2018-09-03T21:14:58.173Z,19.00
2018-09-03T21:17:25.356Z,17.93
2018-09-03T21:19:52.539Z,18.40
2018-09-03T21:22:20.795Z,18.33
2018-09-03T21:24:47.959Z,20.60
2018-09-03T21:27:15.194Z,18.57
2018-09-03T21:29:42.440Z,19.27
2018-09-03T21:32:09.631Z,17.80
2018-09-03T21:34:36.798Z,19.57
2018-09-03T21:37:03.987Z,18.40
2018-09-03T21:39:31.159Z,19.40
2018-09-03T21:41:58.335Z,18.77
2018-09-03T21:44:25.941Z,19.07
2018-09-03T21:46:53.209Z,19.77
2018-09-03T21:49:20.335Z,20.20
2018-09-03T21:51:47.531Z,20.47
2018-09-03T21:54:14.695Z,20.77
2018-09-03T21:56:41.872Z,20.90
2018-09-03T21:59:09.051Z,19.60
2018-09-03T22:01:36.231Z,19.93
2018-09-03T22:04:03.585Z,20.13
2018-09-03T22:06:31.623Z,19.80
2018-09-03T22:08:58.816Z,19.60
2018-09-03T22:11:26.007Z,19.80
2018-09-03T22:13:53.175Z,19.47
2018-09-03T22:16:20.364Z,21.03
2018-09-03T22:18:47.547Z,19.97
2018-09-03T22:21:14.735Z,21.57
2018-09-03T22:23:41.930Z,22.27
2018-09-03T22:26:09.112Z,21.77
2018-09-03T22:28:36.302Z,19.93
2018-09-03T22:31:03.791Z,20.43
2018-09-03T22:33:31.043Z,22.10
2018-09-03T22:35:58.232Z,21.43
2018-09-03T22:38:25.570Z,21.47
2018-09-03T22:40:52.743Z,21.03
2018-09-03T22:43:19.940Z,19.63
2018-09-03T22:45:47.106Z,21.17
2018-09-03T22:48:14.302Z,21.37
2018-09-03T22:50:41.485Z,22.10
2018-09-03T22:53:08.710Z,21.73
2018-09-03T22:55:35.878Z,21.80
2018-09-03T22:58:03.082Z,22.80
2018-09-03T23:00:30.246Z,23.10
2018-09-03T23:02:57.436Z,20.50
2018-09-03T23:05:24.614Z,22.83
2018-09-03T23:07:51.807Z,22.73
2018-09-03T23:10:18.977Z,23.30
2018-09-03T23:12:46.187Z,22.77
2018-09-03T23:15:13.346Z,24.43
2018-09-03T23:17:40.545Z,24.30
2018-09-03T23:20:07.727Z,24.13
2018-09-03T23:22:35.003Z,25.93
2018-09-03T23:25:02.186Z,26.07
2018-09-03T23:27:29.374Z,27.40
2018-09-03T23:29:56.537Z,25.67
2018-09-03T23:32:23.718Z,26.50
2018-09-03T23:34:50.885Z,26.47
2018-09-03T23:37:18.067Z,25.83
2018-09-03T23:39:45.226Z,27.73
2018-09-03T23:42:12.399Z,25.53
2018-09-03T23:44:39.583Z,28.57
2018-09-03T23:47:06.902Z,26.80
2018-09-03T23:49:34.098Z,29.27
2018-09-03T23:52:01.413Z,26.83
2018-09-03T23:54:28.602Z,31.17
2018-09-03T23:56:55.754Z,27.83
2018-09-03T23:59:22.946Z,25.50
